Time;durP1;ratioP1;P1;durP2;ratioP2;P2;SDS_P1;SDS_P2;PMS_P1;PMS_P2;Temp;Humidity;BMP_temperature;BMP_pressure;BME280_temperature;BME280_humidity;BME280_pressure;Samples;Min_cycle;Max_cycle;Signal;HPM_P1;HPM_P2
2021/12/12 00:02:17;;;;;;;53.85;30.67;;;0.00;99.90;;;-0.21;78.47;101707.72;4939571;29;20176;-72
2021/12/12 00:04:50;;;;;;;53.42;30.55;;;0.00;99.90;;;-0.30;78.59;101700.41;4954773;29;20216;-72
2021/12/12 00:07:29;;;;;;;42.72;28.45;;;-0.10;99.90;;;-0.37;78.68;101710.63;4941186;29;20271;-73
2021/12/12 00:10:04;;;;;;;54.05;30.45;;;-0.10;99.90;;;-0.40;79.25;101710.88;4954377;29;20202;-72
2021/12/12 00:12:46;;;;;;;42.22;28.58;;;-0.20;99.90;;;-0.29;79.06;101713.56;4939467;29;20168;-73
2021/12/12 00:15:27;;;;;;;50.50;31.25;;;-0.20;99.90;;;-0.25;79.03;101716.88;4937412;29;20227;-72
2021/12/12 00:18:03;;;;;;;50.30;30.45;;;-0.10;99.90;;;-0.27;78.52;101711.66;4939934;29;20284;-73
2021/12/12 00:20:39;;;;;;;54.17;30.75;;;-0.10;99.90;;;-0.15;78.37;101715.25;4938501;29;20221;-74
2021/12/12 00:23:09;;;;;;;49.25;30.52;;;-0.10;99.90;;;-0.19;78.40;101717.25;4939034;29;20251;-73
2021/12/12 00:26:04;;;;;;;44.15;30.38;;;0.00;99.90;;;-0.17;78.25;101714.50;4938678;29;20203;-72
2021/12/12 00:28:36;;;;;;;52.00;30.67;;;0.00;99.90;;;-0.17;78.86;101717.16;4938638;29;20662;-72
2021/12/12 00:31:12;;;;;;;52.60;30.77;;;0.00;99.90;;;-0.17;78.64;101738.44;4939365;29;20181;-73
2021/12/12 00:33:46;;;;;;;42.13;28.17;;;-0.10;99.90;;;-0.01;78.71;101744.34;4938470;29;20207;-74
2021/12/12 00:36:17;;;;;;;46.95;29.38;;;0.00;99.90;;;0.04;78.42;101747.50;4953586;29;20188;-73
2021/12/12 00:38:51;;;;;;;48.20;28.10;;;0.10;99.90;;;0.09;78.17;101750.69;4939106;29;20180;-72
2021/12/12 00:41:30;;;;;;;56.92;34.13;;;0.10;99.90;;;0.18;77.80;101755.31;4937563;29;20212;-72
2021/12/12 00:44:02;;;;;;;42.92;26.15;;;0.10;99.90;;;0.22;77.61;101758.59;4937419;29;20220;-72
2021/12/12 00:46:31;;;;;;;45.03;28.48;;;0.20;99.90;;;0.19;77.71;101756.16;4953867;28;20270;-73
2021/12/12 00:49:00;;;;;;;49.05;30.08;;;0.20;99.90;;;0.21;77.85;101760.41;4940704;29;20639;-72
2021/12/12 00:51:36;;;;;;;45.90;28.85;;;0.30;99.90;;;0.42;77.18;101766.78;4938756;29;20222;-72
2021/12/12 00:54:07;;;;;;;48.75;30.35;;;0.40;99.90;;;0.40;77.78;101771.38;4938884;29;20256;-72
2021/12/12 00:56:36;;;;;;;45.25;28.75;;;0.40;99.90;;;0.67;77.52;101775.59;4936770;29;20200;-72
2021/12/12 00:59:06;;;;;;;43.03;28.75;;;0.60;99.90;;;0.74;76.73;101771.47;4937551;29;20193;-71
2021/12/12 01:01:41;;;;;;;44.92;26.58;;;0.70;99.90;;;0.58;75.69;101763.78;4953650;29;20244;-72
2021/12/12 01:04:16;;;;;;;42.10;29.00;;;0.70;99.90;;;0.37;76.27;101765.44;4931780;29;20445;-73
2021/12/12 01:06:49;;;;;;;39.30;26.25;;;0.50;99.90;;;0.27;76.39;101764.44;4918807;29;20193;-72
2021/12/12 01:09:23;;;;;;;44.90;28.85;;;0.40;99.90;;;0.10;77.57;101767.50;4918723;29;20234;-73
2021/12/12 01:11:56;;;;;;;47.40;29.45;;;0.30;99.90;;;0.00;77.87;101767.34;4919004;29;20205;-72
2021/12/12 01:14:30;;;;;;;44.58;28.65;;;0.20;99.90;;;0.18;76.94;101760.66;4917629;29;20265;-72
2021/12/12 01:17:05;;;;;;;40.80;27.40;;;0.30;99.90;;;0.09;78.11;101765.81;4919320;29;20193;-73
2021/12/12 01:19:41;;;;;;;41.88;27.40;;;0.20;99.90;;;0.00;77.74;101762.00;4918782;29;20257;-71
2021/12/12 01:22:23;;;;;;;43.05;28.88;;;0.20;99.90;;;-0.07;77.66;101771.41;4919978;29;20205;-73
2021/12/12 01:24:55;;;;;;;46.10;30.77;;;0.10;99.90;;;-0.18;77.88;101763.34;4918736;29;20247;-72
2021/12/12 01:27:25;;;;;;;36.90;25.85;;;0.00;99.90;;;-0.19;78.24;101767.81;4934005;29;20193;-73
2021/12/12 01:29:54;;;;;;;43.20;26.92;;;0.00;99.90;;;-0.13;77.86;101761.19;4918480;29;20277;-73
2021/12/12 01:32:28;;;;;;;44.65;29.00;;;0.00;99.90;;;-0.20;78.20;101768.78;4918651;29;20186;-72
2021/12/12 01:34:58;;;;;;;39.75;27.05;;;0.00;99.90;;;-0.05;77.92;101764.16;4918463;29;20217;-71
2021/12/12 01:37:39;;;;;;;41.97;28.40;;;0.00;99.90;;;0.09;77.12;101766.66;4917631;29;20221;-72
2021/12/12 01:40:16;;;;;;;39.85;26.30;;;0.10;99.90;;;0.13;77.11;101754.81;4918737;29;20233;-74
2021/12/12 01:42:50;;;;;;;44.72;27.23;;;0.20;99.90;;;0.08;77.38;101759.63;4922488;29;20194;-72
2021/12/12 01:45:24;;;;;;;43.90;28.80;;;0.20;99.90;;;-0.15;77.75;101764.00;4923344;29;20227;-73
2021/12/12 01:47:57;;;;;;;41.53;28.25;;;0.10;99.90;;;-0.07;77.91;101771.41;4921063;29;20403;-72
2021/12/12 01:50:32;;;;;;;41.58;27.77;;;0.00;99.90;;;-0.02;78.02;101770.09;4922262;29;20193;-72
2021/12/12 01:53:07;;;;;;;39.88;25.95;;;0.10;99.90;;;-0.23;78.35;101766.34;4923517;29;20204;-72
2021/12/12 01:55:43;;;;;;;34.35;27.33;;;0.00;99.90;;;-0.24;78.31;101774.44;4921433;29;20216;-73
2021/12/12 01:58:17;;;;;;;39.85;27.88;;;0.00;99.90;;;-0.18;78.28;101773.97;4935739;29;20640;-72
2021/12/12 02:00:52;;;;;;;49.30;28.60;;;0.00;99.90;;;-0.15;77.86;101773.78;4921030;29;20221;-72
2021/12/12 02:03:26;;;;;;;43.90;28.17;;;0.00;99.90;;;-0.14;77.90;101763.00;4921269;29;20177;-72
2021/12/12 02:05:56;;;;;;;43.25;27.58;;;0.00;99.90;;;-0.17;77.47;101765.03;4921702;29;20224;-73
2021/12/12 02:08:30;;;;;;;44.13;30.88;;;0.00;99.90;;;-0.23;77.96;101766.34;4921004;29;20362;-72
2021/12/12 02:11:07;;;;;;;37.13;28.55;;;0.00;99.90;;;-0.21;78.09;101760.91;4920506;29;20185;-73
2021/12/12 02:13:41;;;;;;;44.97;29.08;;;0.00;99.90;;;-0.31;77.98;101765.19;4920853;29;20308;-72
2021/12/12 02:16:12;;;;;;;42.50;29.38;;;-0.10;99.90;;;-0.30;78.88;101758.94;4920533;29;20596;-73
2021/12/12 02:18:50;;;;;;;47.13;29.95;;;-0.10;99.90;;;-0.43;78.86;101754.47;4918911;29;20201;-72
2021/12/12 02:21:27;;;;;;;39.35;27.92;;;-0.20;99.90;;;-0.47;78.86;101763.66;4920388;29;20198;-74
2021/12/12 02:24:35;;;;;;;42.20;28.63;;;-0.30;99.90;;;-0.46;78.62;101770.66;4918809;29;20213;-73
2021/12/12 02:35:43;;;;;;;44.47;27.98;;;-0.30;99.90;;;-0.58;79.14;101773.38;4936446;29;20201;-76
2021/12/12 02:38:17;;;;;;;38.47;26.70;;;-0.30;99.90;;;-0.53;79.33;101779.19;4919001;29;20185;-74
2021/12/12 02:40:52;;;;;;;40.63;29.20;;;-0.30;99.90;;;-0.47;79.41;101778.75;4919189;29;20261;-72
2021/12/12 02:43:25;;;;;;;42.65;29.27;;;-0.30;99.90;;;-0.43;79.18;101783.72;4936303;29;20615;-74
2021/12/12 02:45:56;;;;;;;41.22;28.30;;;-0.30;99.90;;;0.10;78.75;101786.13;4926614;29;20206;-72
2021/12/12 02:48:28;;;;;;;40.58;27.75;;;0.00;99.90;;;0.00;77.73;101792.09;4945950;29;20193;-73
2021/12/12 02:51:00;;;;;;;36.40;28.42;;;0.10;99.90;;;0.05;77.62;101801.59;4930778;29;20536;-72
2021/12/12 02:53:33;;;;;;;36.45;27.05;;;0.10;99.90;;;-0.19;77.42;101801.53;4929626;29;20213;-73
2021/12/12 02:56:10;;;;;;;51.50;32.15;;;0.00;99.90;;;0.14;78.00;101795.59;4927766;29;20204;-71
2021/12/12 02:58:41;;;;;;;40.83;28.35;;;0.10;99.90;;;-0.13;78.03;101798.44;4930775;29;20178;-72
2021/12/12 03:01:17;;;;;;;42.92;30.08;;;0.00;99.90;;;-0.20;77.60;101800.72;4926846;29;20555;-72
2021/12/12 03:03:49;;;;;;;46.20;30.30;;;0.00;99.90;;;-0.11;77.53;101801.84;4920061;29;20213;-73
2021/12/12 03:06:22;;;;;;;41.08;27.27;;;0.00;99.90;;;-0.08;77.58;101802.47;4918211;29;20193;-72
2021/12/12 03:08:58;;;;;;;39.80;27.90;;;0.00;99.90;;;-0.26;77.90;101795.84;4918571;29;20193;-72
2021/12/12 03:11:29;;;;;;;38.33;29.27;;;-0.10;99.90;;;-0.20;77.39;101799.88;4919880;29;20237;-72
2021/12/12 03:14:03;;;;;;;38.55;27.10;;;0.00;99.90;;;-0.31;78.27;101799.78;4926257;29;20222;-72
2021/12/12 03:16:33;;;;;;;40.00;26.98;;;-0.10;99.90;;;-0.18;78.25;101801.44;4939446;29;20177;-73
2021/12/12 03:19:02;;;;;;;41.90;29.23;;;-0.10;99.90;;;-0.29;78.05;101801.34;4919161;29;20205;-73
2021/12/12 03:21:35;;;;;;;40.08;27.58;;;-0.10;99.90;;;-0.23;78.68;101813.38;4918181;29;20214;-73
2021/12/12 03:24:09;;;;;;;38.63;24.70;;;-0.10;99.90;;;-0.17;78.22;101812.94;4917724;29;20221;-72
2021/12/12 03:26:44;;;;;;;39.03;26.05;;;0.00;99.90;;;-0.06;78.45;101813.00;4919497;29;20212;-71
2021/12/12 03:29:13;;;;;;;41.80;27.88;;;0.00;99.90;;;-0.04;77.64;101808.41;4924195;29;20260;-72
2021/12/12 03:31:47;;;;;;;41.92;27.33;;;0.10;99.90;;;0.03;77.13;101815.00;4923040;29;20205;-72
2021/12/12 03:34:19;;;;;;;31.73;26.70;;;0.10;99.90;;;-0.24;77.80;101817.00;4925052;29;20205;-72
2021/12/12 03:36:51;;;;;;;42.10;27.90;;;0.00;99.90;;;-0.17;77.49;101804.94;4938204;29;20241;-72
2021/12/12 03:39:24;;;;;;;38.58;27.30;;;0.00;99.90;;;-0.14;78.34;101812.69;4938072;29;20198;-72
2021/12/12 03:41:58;;;;;;;41.10;29.05;;;0.10;99.90;;;0.03;77.81;101815.00;4922645;29;20209;-72
2021/12/12 03:44:32;;;;;;;39.47;25.55;;;0.10;99.90;;;0.14;77.61;101812.41;4923881;29;20269;-72
2021/12/12 03:47:07;;;;;;;43.90;27.20;;;0.20;99.90;;;0.19;77.11;101820.91;4924065;29;20221;-73
2021/12/12 03:49:38;;;;;;;39.53;26.70;;;0.20;99.90;;;0.28;77.04;101820.22;4938186;29;20252;-72
2021/12/12 03:52:09;;;;;;;42.08;29.90;;;0.30;99.90;;;0.21;76.75;101818.97;4924209;29;20263;-72
2021/12/12 03:54:41;;;;;;;48.50;27.58;;;0.30;99.90;;;0.17;76.89;101821.97;4923359;29;20209;-72
2021/12/12 03:57:11;;;;;;;37.72;27.70;;;0.30;99.90;;;0.22;77.24;101823.34;4926710;29;20220;-72
2021/12/12 03:59:40;;;;;;;37.38;25.65;;;0.30;99.90;;;0.15;77.09;101819.41;4923587;29;20205;-71
2021/12/12 04:02:09;;;;;;;42.53;29.98;;;0.30;99.90;;;0.07;77.29;101816.47;4921097;29;20217;-72
2021/12/12 04:04:42;;;;;;;41.33;26.92;;;0.30;99.90;;;0.09;77.55;101819.88;4921485;29;20274;-72
2021/12/12 04:07:17;;;;;;;40.92;27.10;;;0.20;99.90;;;0.14;77.57;101820.41;4926364;29;20189;-73
2021/12/12 04:09:47;;;;;;;30.83;25.15;;;0.30;99.90;;;0.21;76.40;101826.09;4925716;29;20185;-72
2021/12/12 04:12:21;;;;;;;35.65;25.40;;;0.30;99.90;;;0.12;77.15;101819.66;4926054;29;20250;-73
2021/12/12 04:14:54;;;;;;;35.72;26.80;;;0.30;99.90;;;0.11;77.65;101825.06;4924777;29;20314;-71
2021/12/12 04:17:30;;;;;;;32.35;23.85;;;0.30;99.90;;;0.15;77.79;101827.41;4925106;29;20267;-73
2021/12/12 04:20:05;;;;;;;33.53;25.67;;;0.30;99.90;;;0.03;78.10;101830.97;4923276;29;20212;-72
2021/12/12 04:22:34;;;;;;;31.63;23.77;;;0.30;99.90;;;0.12;77.36;101835.63;4923510;29;20209;-73
2021/12/12 04:25:08;;;;;;;42.65;28.40;;;0.30;99.90;;;0.23;77.09;101833.03;4926351;29;20237;-72
2021/12/12 04:27:39;;;;;;;35.72;24.65;;;0.30;99.90;;;0.15;77.08;101839.84;4925443;29;20185;-73
2021/12/12 04:30:11;;;;;;;36.50;26.70;;;0.30;99.90;;;0.12;77.48;101851.59;4925174;29;20185;-73
2021/12/12 04:32:42;;;;;;;30.65;25.00;;;0.30;99.90;;;0.15;77.21;101851.34;4922468;29;20194;-72
2021/12/12 04:35:18;;;;;;;43.58;29.27;;;0.30;99.90;;;0.28;76.49;101852.19;4920524;29;20582;-71
2021/12/12 04:37:47;;;;;;;46.40;25.17;;;0.40;99.90;;;0.27;77.42;101847.81;4926241;29;20181;-73
2021/12/12 04:40:19;;;;;;;34.63;23.42;;;0.40;99.90;;;0.37;76.80;101848.84;4925339;29;20200;-73
2021/12/12 04:42:53;;;;;;;42.45;25.17;;;0.40;99.90;;;0.35;76.79;101856.06;4924353;29;20623;-72
2021/12/12 04:45:49;;;;;;;32.95;24.38;;;0.40;99.90;;;0.52;76.26;101856.66;4939810;29;20292;-73
2021/12/12 04:51:21;;;;;;;34.85;25.65;;;0.60;99.90;;;0.86;76.13;101853.16;4925335;29;20188;-73
2021/12/12 04:53:57;;;;;;;36.58;25.20;;;0.70;99.90;;;0.90;75.98;101849.28;4923700;29;20224;-72
2021/12/12 04:56:33;;;;;;;36.72;25.55;;;0.80;99.90;;;0.91;76.22;101850.13;4924037;29;20237;-72
2021/12/12 04:59:15;;;;;;;38.00;24.95;;;0.90;99.90;;;0.91;76.94;101856.31;4925015;29;20206;-73
2021/12/12 05:01:54;;;;;;;38.15;23.90;;;0.90;99.90;;;0.93;77.27;101859.69;4926803;29;20192;-72
2021/12/12 05:04:30;;;;;;;42.17;28.17;;;1.00;99.90;;;0.97;77.04;101861.16;4925386;29;20213;-72
2021/12/12 05:07:07;;;;;;;38.10;25.17;;;1.00;99.90;;;1.10;77.21;101858.44;4926753;29;20190;-72
2021/12/12 05:09:49;;;;;;;45.05;27.65;;;1.10;99.90;;;1.18;77.52;101859.53;4924349;29;20670;-71
2021/12/12 05:12:28;;;;;;;47.78;26.95;;;1.10;99.90;;;1.14;77.00;101858.06;4922402;29;20216;-72
2021/12/12 05:15:02;;;;;;;39.55;25.60;;;1.20;99.90;;;1.27;76.21;101863.28;4919749;29;20228;-72
2021/12/12 05:17:37;;;;;;;37.17;27.45;;;1.30;99.90;;;1.24;77.38;101859.06;4922020;29;20234;-73
2021/12/12 05:20:14;;;;;;;34.42;25.85;;;1.30;99.90;;;1.36;76.89;101864.38;4919942;29;20554;-72
2021/12/12 05:22:48;;;;;;;35.78;25.48;;;1.40;99.90;;;1.33;76.69;101867.31;4919566;29;20646;-73
2021/12/12 05:25:24;;;;;;;37.92;25.88;;;1.40;99.90;;;1.18;77.30;101870.19;4919683;29;20402;-73
2021/12/12 05:27:56;;;;;;;34.00;25.10;;;1.20;99.90;;;1.31;77.33;101865.59;4920627;29;20216;-74
2021/12/12 05:30:31;;;;;;;42.90;25.27;;;1.30;99.90;;;1.25;76.63;101855.44;4919289;29;20204;-73
2021/12/12 05:33:02;;;;;;;45.05;26.33;;;1.30;99.90;;;1.24;76.56;101859.06;4934986;29;20197;-72
2021/12/12 05:35:36;;;;;;;34.17;25.52;;;1.30;99.90;;;1.10;77.23;101861.94;4920589;29;20182;-72
2021/12/12 05:38:08;;;;;;;36.55;26.17;;;1.20;99.90;;;1.11;77.23;101863.66;4921324;29;20655;-72
2021/12/12 05:40:42;;;;;;;40.00;24.67;;;1.20;99.90;;;1.08;77.33;101869.19;4921085;29;20174;-72
2021/12/12 05:43:14;;;;;;;35.03;24.05;;;1.20;99.90;;;1.16;76.74;101872.13;4921808;29;20197;-70
2021/12/12 05:45:48;;;;;;;40.30;25.67;;;1.30;99.90;;;0.94;77.84;101877.41;4938023;29;20256;-72
2021/12/12 05:48:17;;;;;;;41.55;28.13;;;1.10;99.90;;;0.89;78.09;101874.22;4925209;29;20247;-74
2021/12/12 05:50:46;;;;;;;36.67;25.63;;;1.10;99.90;;;0.86;78.09;101871.81;4921860;29;20711;-77
2021/12/12 05:53:16;;;;;;;45.80;28.30;;;1.00;99.90;;;0.85;78.90;101878.94;4920732;29;20272;-71
2021/12/12 05:55:47;;;;;;;54.58;31.17;;;1.00;99.90;;;0.80;78.33;101880.25;4922222;29;20198;-73
2021/12/12 05:58:21;;;;;;;46.35;30.80;;;1.00;99.90;;;0.83;79.28;101875.53;4920927;29;20250;-72
2021/12/12 06:00:56;;;;;;;48.13;29.27;;;1.00;99.90;;;0.78;78.72;101876.84;4934984;29;20269;-72
2021/12/12 06:03:29;;;;;;;42.28;28.85;;;1.00;99.90;;;0.78;78.83;101883.03;4920784;29;20216;-73
2021/12/12 06:06:00;;;;;;;44.17;29.48;;;0.90;99.90;;;0.63;79.31;101868.19;4922274;29;20188;-72
2021/12/12 06:08:30;;;;;;;41.92;26.38;;;0.80;99.90;;;0.64;79.42;101858.38;4936172;29;20658;-73
2021/12/12 06:11:01;;;;;;;46.63;28.40;;;0.80;99.90;;;0.80;78.82;101864.25;4921400;29;20228;-72
2021/12/12 06:13:32;;;;;;;45.78;29.48;;;0.90;99.90;;;0.83;79.11;101864.88;4921953;29;20209;-71
2021/12/12 06:16:02;;;;;;;47.72;29.60;;;0.90;99.90;;;0.86;78.63;101867.34;4921454;29;20685;-72
2021/12/12 06:18:34;;;;;;;44.05;27.55;;;0.90;99.90;;;0.98;79.07;101868.19;4922624;29;20184;-72
2021/12/12 06:21:04;;;;;;;48.13;31.17;;;1.00;99.90;;;0.88;78.83;101868.03;4920242;29;20573;-72
2021/12/12 06:23:33;;;;;;;47.80;27.60;;;1.00;99.90;;;1.03;78.85;101855.38;4920373;29;20221;-72
2021/12/12 06:26:04;;;;;;;54.75;26.63;;;1.00;99.90;;;1.03;77.73;101865.19;4921900;29;20204;-72
2021/12/12 06:28:38;;;;;;;41.22;27.30;;;1.10;99.90;;;0.97;78.03;101858.50;4919355;29;20196;-71
2021/12/12 06:31:10;;;;;;;38.53;26.90;;;1.10;99.90;;;1.07;77.52;101858.63;4920953;29;20174;-72
2021/12/12 06:33:41;;;;;;;41.72;28.90;;;1.10;99.90;;;0.92;77.89;101854.50;4920322;29;20575;-72
2021/12/12 06:36:14;;;;;;;40.92;25.90;;;1.00;99.90;;;0.83;78.00;101856.03;4920020;29;20196;-72
2021/12/12 06:38:48;;;;;;;42.75;26.30;;;0.90;99.90;;;0.87;77.27;101860.19;4920412;29;20220;-72
2021/12/12 06:41:20;;;;;;;37.22;26.58;;;1.00;99.90;;;0.77;77.27;101870.69;4919809;29;20260;-73
2021/12/12 06:43:50;;;;;;;37.75;27.50;;;0.90;99.90;;;0.68;77.03;101875.81;4936778;29;20852;-72
2021/12/12 06:46:22;;;;;;;36.53;24.75;;;0.80;99.90;;;0.53;77.92;101877.00;4921159;29;20283;-72
2021/12/12 06:48:51;;;;;;;34.53;25.33;;;0.70;99.90;;;0.45;77.84;101874.88;4920328;29;20196;-72
2021/12/12 06:51:20;;;;;;;37.30;25.98;;;0.60;99.90;;;0.58;77.53;101870.34;4917487;29;20185;-71
2021/12/12 06:53:50;;;;;;;38.40;24.92;;;0.70;99.90;;;0.41;78.21;101866.28;4917472;29;20225;-72
2021/12/12 06:56:21;;;;;;;36.97;26.42;;;0.60;99.90;;;0.61;77.05;101866.63;4918964;29;20182;-73
2021/12/12 06:58:51;;;;;;;38.20;26.00;;;0.70;99.90;;;0.70;76.55;101880.09;4919336;29;20265;-73
2021/12/12 07:01:28;;;;;;;42.80;26.27;;;0.70;99.90;;;0.54;76.59;101876.00;4919497;29;20578;-72
2021/12/12 07:03:58;;;;;;;36.30;25.52;;;0.60;99.90;;;0.65;76.44;101876.06;4935493;29;20232;-73
2021/12/12 07:06:30;;;;;;;33.92;23.10;;;0.70;99.90;;;0.51;76.42;101884.25;4918093;29;20205;-71
2021/12/12 07:09:03;;;;;;;37.72;25.80;;;0.60;99.90;;;0.49;76.66;101886.16;4919069;29;20679;-75
2021/12/12 07:11:34;;;;;;;38.58;26.30;;;0.70;99.90;;;0.62;75.77;101884.31;4918412;29;20205;-72
2021/12/12 07:14:04;;;;;;;36.05;23.65;;;0.70;99.90;;;0.62;75.86;101887.81;4917226;29;20232;-73
2021/12/12 07:16:35;;;;;;;33.28;24.58;;;0.70;99.90;;;0.53;75.74;101887.66;4916792;29;20278;-73
2021/12/12 07:19:06;;;;;;;34.67;24.35;;;0.60;99.90;;;0.48;75.91;101889.81;4933267;29;20283;-73
2021/12/12 07:21:36;;;;;;;31.02;24.58;;;0.60;99.90;;;0.60;75.72;101888.88;4916819;29;20190;-72
2021/12/12 07:24:06;;;;;;;34.50;24.27;;;0.60;99.90;;;0.76;78.06;101894.78;4918294;29;20217;-72
2021/12/12 07:26:35;;;;;;;32.85;23.35;;;0.70;99.90;;;0.91;76.31;101890.97;4918592;29;20249;-73
2021/12/12 07:29:06;;;;;;;28.58;22.65;;;0.90;99.90;;;1.08;74.38;101895.00;4933014;29;20194;-72
2021/12/12 07:31:39;;;;;;;34.55;24.45;;;1.10;99.90;;;1.99;73.28;101891.34;4918559;29;20185;-73
2021/12/12 07:34:13;;;;;;;33.17;24.23;;;1.70;99.90;;;1.75;71.96;101894.13;4918777;29;20606;-72
2021/12/12 07:36:46;;;;;;;33.45;23.13;;;1.70;99.90;;;1.26;72.69;101891.78;4933065;29;20590;-72
2021/12/12 07:39:18;;;;;;;28.92;22.60;;;1.50;99.90;;;1.13;73.85;101898.16;4918127;29;20174;-74
2021/12/12 07:41:49;;;;;;;34.00;23.90;;;1.30;99.90;;;0.99;74.04;101903.69;4918295;29;20188;-73
2021/12/12 07:44:22;;;;;;;31.88;22.85;;;1.10;99.90;;;0.72;75.01;101903.97;4917317;29;20225;-73
2021/12/12 07:46:54;;;;;;;32.88;24.70;;;1.00;99.90;;;0.92;74.53;101913.97;4918036;29;20202;-73
2021/12/12 07:49:26;;;;;;;33.20;24.70;;;1.00;99.90;;;0.79;74.72;101907.84;4918830;29;20186;-72
2021/12/12 07:51:56;;;;;;;37.90;27.02;;;0.90;99.90;;;0.98;74.94;101908.19;4920531;29;20186;-73
2021/12/12 07:54:25;;;;;;;36.28;25.80;;;1.00;99.90;;;1.12;74.22;101907.97;4921555;29;20217;-72
2021/12/12 07:56:55;;;;;;;35.85;25.20;;;1.10;99.90;;;1.02;74.17;101896.31;4923650;29;20260;-73
2021/12/12 07:59:24;;;;;;;30.20;22.98;;;1.10;99.90;;;1.14;74.04;101906.06;4925719;29;20197;-74
2021/12/12 08:01:55;;;;;;;37.92;25.27;;;1.10;99.90;;;1.01;74.09;101909.78;4924187;29;20181;-73
2021/12/12 08:04:29;;;;;;;32.10;25.00;;;1.00;99.90;;;0.84;74.86;101900.38;4921548;29;20252;-72
2021/12/12 08:07:00;;;;;;;33.17;24.95;;;1.00;99.90;;;0.90;75.19;101907.91;4933926;29;20303;-73
2021/12/12 08:09:31;;;;;;;30.00;24.17;;;0.90;99.90;;;0.98;74.17;101902.84;4919682;29;20173;-72
2021/12/12 08:12:01;;;;;;;36.97;24.60;;;1.00;99.90;;;0.87;74.88;101902.81;4934639;29;20293;-72
2021/12/12 08:14:30;;;;;;;34.88;24.40;;;0.90;99.90;;;1.01;74.84;101902.63;4920304;29;20224;-72
2021/12/12 08:17:01;;;;;;;38.45;25.17;;;1.00;99.90;;;1.05;74.22;101901.44;4920056;29;20663;-73
2021/12/12 08:19:33;;;;;;;36.22;25.30;;;1.10;99.90;;;0.86;74.92;101895.78;4919987;29;20616;-72
2021/12/12 08:22:11;;;;;;;37.05;24.48;;;0.90;99.90;;;0.97;74.84;101893.16;4918313;29;20636;-73
2021/12/12 08:24:41;;;;;;;32.28;25.05;;;1.00;99.90;;;1.10;74.07;101895.75;4919025;29;20240;-75
2021/12/12 08:27:12;;;;;;;32.90;24.77;;;1.10;99.90;;;1.11;74.01;101894.78;4933138;29;20201;-72
2021/12/12 08:29:41;;;;;;;38.67;24.95;;;1.10;99.90;;;0.99;74.42;101888.56;4918585;29;20200;-72
2021/12/12 08:32:14;;;;;;;44.20;27.00;;;1.00;99.90;;;1.13;74.73;101885.69;4923772;29;20193;-74
2021/12/12 08:35:04;;;;;;;38.60;27.83;;;1.10;99.90;;;1.30;73.87;101895.94;4923270;29;20216;-73
2021/12/12 08:37:33;;;;;;;35.83;26.08;;;1.20;99.90;;;1.29;73.94;101888.88;4923414;29;20190;-74
2021/12/12 08:40:06;;;;;;;42.35;26.35;;;1.20;99.90;;;1.65;72.89;101887.81;4919466;29;20261;-73
2021/12/12 08:42:35;;;;;;;33.70;24.33;;;1.50;99.90;;;1.48;73.10;101884.78;4938733;29;20225;-73
2021/12/12 08:45:12;;;;;;;41.92;25.85;;;1.40;99.90;;;1.41;73.51;101886.22;4926489;29;20280;-72
2021/12/12 08:47:43;;;;;;;40.95;26.23;;;1.40;99.90;;;1.53;73.51;101877.28;4928113;29;20181;-74
2021/12/12 08:50:18;;;;;;;37.85;25.50;;;1.40;99.90;;;1.58;73.45;101881.28;4928884;29;20225;-73
2021/12/12 08:52:49;;;;;;;38.67;24.83;;;1.50;99.90;;;1.59;73.13;101879.47;4930789;29;20555;-72
2021/12/12 08:55:23;;;;;;;38.30;25.60;;;1.50;99.90;;;1.74;73.30;101886.28;4930052;29;20243;-73
2021/12/12 08:58:00;;;;;;;35.95;24.65;;;1.60;99.90;;;1.83;72.55;101876.69;4930255;29;20226;-75
2021/12/12 09:00:40;;;;;;;41.38;26.65;;;1.70;99.90;;;1.87;72.84;101879.00;4938056;29;20197;-72
2021/12/12 09:03:11;;;;;;;32.15;25.05;;;1.80;99.90;;;1.98;72.73;101878.13;4923450;29;20221;-73
2021/12/12 09:05:42;;;;;;;36.75;26.02;;;1.80;99.90;;;1.96;72.33;101878.25;4923278;29;20628;-75
2021/12/12 09:08:29;;;;;;;34.03;25.15;;;1.90;99.90;;;2.02;72.48;101875.09;4936853;29;20227;-72
2021/12/12 09:11:06;;;;;;;36.97;27.85;;;1.90;99.90;;;2.23;72.08;101879.69;4922910;29;20192;-74
2021/12/12 09:13:43;;;;;;;39.42;25.65;;;2.00;99.90;;;2.21;71.97;101889.63;4921313;29;20237;-72
2021/12/12 09:16:24;;;;;;;33.20;24.20;;;2.10;99.90;;;2.35;71.66;101890.22;4923019;29;20197;-73
2021/12/12 09:19:03;;;;;;;32.40;22.67;;;2.10;99.90;;;2.22;71.86;101878.84;4920391;29;20201;-74
2021/12/12 09:21:47;;;;;;;30.60;23.42;;;2.20;99.90;;;2.10;72.64;101878.00;4935788;29;20193;-73
2021/12/12 09:24:27;;;;;;;30.92;24.17;;;2.10;99.90;;;2.34;72.09;101884.97;4920712;29;20210;-73
2021/12/12 09:27:05;;;;;;;35.17;24.52;;;2.30;99.90;;;2.37;71.66;101888.25;4921037;29;20659;-73
2021/12/12 09:29:43;;;;;;;40.60;24.88;;;2.30;99.90;;;2.38;71.47;101889.09;4936089;29;20216;-73
2021/12/12 09:32:22;;;;;;;30.08;23.98;;;2.30;99.90;;;2.45;71.82;101903.66;4922924;29;20174;-74
2021/12/12 09:35:07;;;;;;;31.48;22.20;;;2.40;99.90;;;2.46;71.55;101898.19;4920591;29;20213;-72
2021/12/12 09:37:45;;;;;;;32.95;24.13;;;2.50;99.90;;;2.43;71.82;101894.91;4921888;29;20198;-73
2021/12/12 09:40:40;;;;;;;34.67;24.63;;;2.40;99.90;;;2.53;71.88;101887.84;4936334;29;20690;-72
2021/12/12 09:43:34;;;;;;;39.13;26.27;;;2.50;99.90;;;2.50;71.92;101893.44;4921864;29;20169;-72
2021/12/12 09:46:27;;;;;;;34.63;26.45;;;2.50;99.90;;;2.50;72.16;101896.13;4922810;29;20316;-73
2021/12/12 09:52:55;;;;;;;39.58;25.33;;;2.40;99.90;;;2.69;71.80;101896.31;4921434;29;20197;-73
2021/12/12 09:55:33;;;;;;;32.50;24.35;;;2.60;99.90;;;2.77;71.51;101896.50;4921680;29;20221;-73
2021/12/12 09:58:12;;;;;;;32.92;22.55;;;2.70;99.90;;;2.70;72.30;101890.00;4921219;29;20197;-73
2021/12/12 10:00:49;;;;;;;37.97;24.23;;;2.60;99.90;;;2.94;71.58;101887.09;4920416;29;20209;-73
2021/12/12 10:03:27;;;;;;;35.97;23.58;;;2.70;99.90;;;2.80;71.66;101885.56;4921876;29;20189;-72
2021/12/12 10:06:08;;;;;;;36.88;24.40;;;2.70;99.90;;;2.75;71.66;101882.44;4921489;29;20238;-74
2021/12/12 10:09:10;;;;;;;41.70;25.95;;;2.70;99.90;;;2.90;71.32;101886.50;4924830;29;20539;-72
2021/12/12 10:11:52;;;;;;;34.75;23.63;;;2.80;99.90;;;2.78;72.23;101879.50;4926008;29;20189;-75
2021/12/12 10:14:35;;;;;;;38.53;26.88;;;2.70;99.90;;;2.76;72.13;101878.75;4927830;29;20209;-72
2021/12/12 10:17:16;;;;;;;34.88;25.20;;;2.80;99.90;;;2.89;71.81;101866.09;4924986;29;20201;-73
2021/12/12 10:19:55;;;;;;;33.90;26.02;;;2.80;99.90;;;2.74;72.23;101875.38;4920987;29;20553;-73
2021/12/12 10:22:54;;;;;;;33.58;24.63;;;2.70;99.90;;;2.74;72.47;101875.38;4924500;29;20281;-72
2021/12/12 10:25:34;;;;;;;39.95;22.92;;;2.70;99.90;;;3.06;71.38;101862.81;4939630;29;20554;-75
2021/12/12 10:28:20;;;;;;;35.22;24.00;;;2.90;99.90;;;2.99;71.49;101853.66;4924474;29;20212;-74
2021/12/12 10:30:59;;;;;;;40.40;24.65;;;2.90;99.90;;;2.88;72.18;101856.38;4926284;29;20272;-73
2021/12/12 10:33:40;;;;;;;38.47;24.77;;;2.90;99.90;;;2.99;71.89;101850.97;4926015;29;20221;-74
2021/12/12 10:36:14;;;;;;;34.13;22.75;;;2.90;99.90;;;3.05;71.69;101846.91;4921079;29;20241;-76
2021/12/12 10:38:54;;;;;;;49.50;26.98;;;3.00;99.90;;;3.13;72.01;101844.44;4921425;29;20193;-74
2021/12/12 10:41:28;;;;;;;34.80;23.80;;;3.00;99.90;;;3.18;71.84;101846.72;4919885;29;20237;-72
2021/12/12 10:44:06;;;;;;;33.53;22.60;;;3.10;99.90;;;3.31;71.30;101844.69;4920890;29;20825;-73
2021/12/12 10:46:47;;;;;;;31.58;22.63;;;3.20;99.90;;;3.31;71.18;101852.69;4920352;29;20260;-73
2021/12/12 10:49:28;;;;;;;37.17;24.60;;;3.20;99.90;;;3.24;71.85;101851.56;4920330;29;20174;-72
2021/12/12 10:52:04;;;;;;;34.25;23.50;;;3.30;99.90;;;3.33;71.28;101856.09;4936153;29;20245;-74
2021/12/12 10:54:42;;;;;;;31.90;22.13;;;3.30;99.90;;;3.48;71.13;101854.78;4919487;29;20213;-75
2021/12/12 10:57:17;;;;;;;38.85;25.95;;;3.30;99.90;;;3.42;71.26;101858.00;4921977;29;20663;-73